sensor_id;sensor_type;location;lat;lon;timestamp;pressure;altitude;pressure_sealevel;temperature;humidity
51053;BME280;37093;37.716;-122.060;2023-02-28T00:01:23;99601.81;;;8.93;54.42
51053;BME280;37093;37.716;-122.060;2023-02-28T00:03:52;99610.45;;;8.22;53.50
51053;BME280;37093;37.716;-122.060;2023-02-28T00:06:21;99622.63;;;8.03;55.94
51053;BME280;37093;37.716;-122.060;2023-02-28T00:08:49;99626.01;;;8.56;54.68
51053;BME280;37093;37.716;-122.060;2023-02-28T00:11:18;99619.64;;;8.28;54.00
51053;BME280;37093;37.716;-122.060;2023-02-28T00:13:47;99614.94;;;9.05;53.41
51053;BME280;37093;37.716;-122.060;2023-02-28T00:16:18;99615.58;;;9.23;53.04
51053;BME280;37093;37.716;-122.060;2023-02-28T00:18:48;99619.55;;;9.62;53.25
51053;BME280;37093;37.716;-122.060;2023-02-28T00:21:18;99625.47;;;8.85;53.33
51053;BME280;37093;37.716;-122.060;2023-02-28T00:23:47;99623.90;;;8.86;54.54
51053;BME280;37093;37.716;-122.060;2023-02-28T00:26:15;99629.28;;;9.11;53.90
51053;BME280;37093;37.716;-122.060;2023-02-28T00:28:44;99642.93;;;8.62;54.85
51053;BME280;37093;37.716;-122.060;2023-02-28T00:31:13;99644.73;;;8.66;54.68
51053;BME280;37093;37.716;-122.060;2023-02-28T00:33:42;99644.67;;;8.52;53.40
51053;BME280;37093;37.716;-122.060;2023-02-28T00:36:11;99645.26;;;7.78;55.69
51053;BME280;37093;37.716;-122.060;2023-02-28T00:38:40;99647.77;;;8.39;53.98
51053;BME280;37093;37.716;-122.060;2023-02-28T00:41:09;99648.90;;;9.03;53.02
51053;BME280;37093;37.716;-122.060;2023-02-28T00:43:39;99654.79;;;8.86;52.95
51053;BME280;37093;37.716;-122.060;2023-02-28T00:46:08;99664.13;;;8.70;51.93
51053;BME280;37093;37.716;-122.060;2023-02-28T00:48:36;99666.64;;;8.85;52.08
51053;BME280;37093;37.716;-122.060;2023-02-28T00:51:05;99667.58;;;8.70;52.02
51053;BME280;37093;37.716;-122.060;2023-02-28T00:53:34;99666.53;;;9.10;52.66
51053;BME280;37093;37.716;-122.060;2023-02-28T00:56:02;99678.21;;;9.48;51.67
51053;BME280;37093;37.716;-122.060;2023-02-28T00:58:31;99683.07;;;9.68;51.80
51053;BME280;37093;37.716;-122.060;2023-02-28T01:00:59;99686.92;;;9.06;50.91
51053;BME280;37093;37.716;-122.060;2023-02-28T01:03:28;99684.50;;;8.86;52.20
51053;BME280;37093;37.716;-122.060;2023-02-28T01:05:57;99683.18;;;9.00;50.66
51053;BME280;37093;37.716;-122.060;2023-02-28T01:08:25;99687.48;;;9.55;51.42
51053;BME280;37093;37.716;-122.060;2023-02-28T01:10:54;99690.47;;;9.83;48.88
51053;BME280;37093;37.716;-122.060;2023-02-28T01:13:22;99691.28;;;8.90;51.31
51053;BME280;37093;37.716;-122.060;2023-02-28T01:15:52;99698.53;;;8.24;52.16
51053;BME280;37093;37.716;-122.060;2023-02-28T01:18:22;99704.59;;;8.71;50.68
51053;BME280;37093;37.716;-122.060;2023-02-28T01:20:51;99707.27;;;8.45;51.80
51053;BME280;37093;37.716;-122.060;2023-02-28T01:23:20;99706.77;;;8.73;50.91
51053;BME280;37093;37.716;-122.060;2023-02-28T01:25:49;99710.48;;;9.59;50.15
51053;BME280;37093;37.716;-122.060;2023-02-28T01:28:17;99713.10;;;8.58;49.06
51053;BME280;37093;37.716;-122.060;2023-02-28T01:30:48;99711.95;;;8.91;50.33
51053;BME280;37093;37.716;-122.060;2023-02-28T01:33:17;99716.22;;;8.40;49.17
51053;BME280;37093;37.716;-122.060;2023-02-28T01:35:47;99715.96;;;8.46;51.51
51053;BME280;37093;37.716;-122.060;2023-02-28T01:38:15;99710.37;;;9.08;48.85
51053;BME280;37093;37.716;-122.060;2023-02-28T01:40:43;99707.11;;;9.06;48.38
51053;BME280;37093;37.716;-122.060;2023-02-28T01:43:21;99712.34;;;9.56;48.92
51053;BME280;37093;37.716;-122.060;2023-02-28T01:45:50;99708.09;;;9.34;49.20
51053;BME280;37093;37.716;-122.060;2023-02-28T01:48:20;99703.22;;;9.43;48.59
51053;BME280;37093;37.716;-122.060;2023-02-28T01:50:52;99705.60;;;9.37;47.51
51053;BME280;37093;37.716;-122.060;2023-02-28T01:53:24;99708.70;;;9.79;46.47
51053;BME280;37093;37.716;-122.060;2023-02-28T01:55:55;99706.67;;;9.33;48.23
51053;BME280;37093;37.716;-122.060;2023-02-28T01:58:24;99712.06;;;9.07;46.20
51053;BME280;37093;37.716;-122.060;2023-02-28T02:00:52;99714.68;;;8.60;47.01
51053;BME280;37093;37.716;-122.060;2023-02-28T02:03:21;99719.74;;;8.55;46.24
51053;BME280;37093;37.716;-122.060;2023-02-28T02:05:50;99719.69;;;8.55;47.71
51053;BME280;37093;37.716;-122.060;2023-02-28T02:08:21;99722.11;;;9.09;45.86
51053;BME280;37093;37.716;-122.060;2023-02-28T02:10:52;99724.33;;;8.78;47.44
51053;BME280;37093;37.716;-122.060;2023-02-28T02:13:34;99724.63;;;9.18;46.73
51053;BME280;37093;37.716;-122.060;2023-02-28T02:16:15;99723.82;;;9.71;48.08
51053;BME280;37093;37.716;-122.060;2023-02-28T02:18:53;99725.36;;;9.39;47.91
51053;BME280;37093;37.716;-122.060;2023-02-28T02:21:43;99728.85;;;9.75;48.46
51053;BME280;37093;37.716;-122.060;2023-02-28T02:25:29;99734.23;;;9.59;48.92
51053;BME280;37093;37.716;-122.060;2023-02-28T02:28:17;99736.17;;;8.55;48.19
51053;BME280;37093;37.716;-122.060;2023-02-28T02:31:06;99735.99;;;8.56;47.68
51053;BME280;37093;37.716;-122.060;2023-02-28T02:34:02;99732.54;;;8.83;47.26
51053;BME280;37093;37.716;-122.060;2023-02-28T02:36:37;99736.70;;;8.62;47.65
51053;BME280;37093;37.716;-122.060;2023-02-28T02:39:10;99734.92;;;9.08;46.34
51053;BME280;37093;37.716;-122.060;2023-02-28T02:41:46;99733.04;;;8.94;46.03
51053;BME280;37093;37.716;-122.060;2023-02-28T02:44:22;99743.46;;;8.11;48.21
51053;BME280;37093;37.716;-122.060;2023-02-28T02:46:55;99739.38;;;9.09;46.74
51053;BME280;37093;37.716;-122.060;2023-02-28T02:49:30;99742.23;;;8.74;46.26
51053;BME280;37093;37.716;-122.060;2023-02-28T02:52:04;99739.81;;;9.22;46.04
51053;BME280;37093;37.716;-122.060;2023-02-28T02:54:36;99748.15;;;9.32;44.43
51053;BME280;37093;37.716;-122.060;2023-02-28T02:57:08;99753.73;;;8.62;47.14
51053;BME280;37093;37.716;-122.060;2023-02-28T02:59:40;99756.20;;;8.15;48.48
51053;BME280;37093;37.716;-122.060;2023-02-28T03:02:12;99761.14;;;8.59;47.30
51053;BME280;37093;37.716;-122.060;2023-02-28T03:04:45;99757.67;;;9.20;46.69
51053;BME280;37093;37.716;-122.060;2023-02-28T03:07:15;99757.99;;;9.28;46.13
51053;BME280;37093;37.716;-122.060;2023-02-28T03:09:51;99760.62;;;9.15;46.37
51053;BME280;37093;37.716;-122.060;2023-02-28T03:12:21;99769.32;;;8.81;47.60
51053;BME280;37093;37.716;-122.060;2023-02-28T03:14:56;99765.33;;;9.01;47.54
51053;BME280;37093;37.716;-122.060;2023-02-28T03:17:44;99774.51;;;8.97;47.18
51053;BME280;37093;37.716;-122.060;2023-02-28T03:20:24;99775.36;;;9.01;46.59
51053;BME280;37093;37.716;-122.060;2023-02-28T03:23:03;99775.70;;;9.35;47.08
51053;BME280;37093;37.716;-122.060;2023-02-28T03:25:39;99777.37;;;9.46;46.03
51053;BME280;37093;37.716;-122.060;2023-02-28T03:28:15;99785.58;;;10.02;46.03
51053;BME280;37093;37.716;-122.060;2023-02-28T03:30:51;99790.68;;;9.77;46.00
51053;BME280;37093;37.716;-122.060;2023-02-28T03:33:23;99794.53;;;9.81;45.84
51053;BME280;37093;37.716;-122.060;2023-02-28T03:35:56;99798.00;;;9.43;46.43
51053;BME280;37093;37.716;-122.060;2023-02-28T03:38:29;99805.95;;;8.95;48.93
51053;BME280;37093;37.716;-122.060;2023-02-28T03:41:04;99803.25;;;8.85;48.53
51053;BME280;37093;37.716;-122.060;2023-02-28T03:43:35;99800.16;;;9.56;46.87
51053;BME280;37093;37.716;-122.060;2023-02-28T03:46:09;99810.11;;;8.94;48.36
51053;BME280;37093;37.716;-122.060;2023-02-28T03:48:42;99803.49;;;9.23;49.62
51053;BME280;37093;37.716;-122.060;2023-02-28T03:51:17;99800.86;;;9.61;48.22
51053;BME280;37093;37.716;-122.060;2023-02-28T03:53:52;99801.56;;;9.89;47.34
51053;BME280;37093;37.716;-122.060;2023-02-28T03:56:27;99801.90;;;8.81;48.97
51053;BME280;37093;37.716;-122.060;2023-02-28T03:59:04;99803.60;;;8.66;48.93
51053;BME280;37093;37.716;-122.060;2023-02-28T04:01:38;99798.19;;;9.25;48.72
51053;BME280;37093;37.716;-122.060;2023-02-28T04:04:08;99796.69;;;9.33;49.33
51053;BME280;37093;37.716;-122.060;2023-02-28T04:06:37;99793.14;;;9.52;48.77
51053;BME280;37093;37.716;-122.060;2023-02-28T04:09:07;99789.19;;;9.29;49.44
51053;BME280;37093;37.716;-122.060;2023-02-28T04:11:38;99793.85;;;9.46;48.76
51053;BME280;37093;37.716;-122.060;2023-02-28T04:14:08;99798.66;;;9.63;48.56
51053;BME280;37093;37.716;-122.060;2023-02-28T04:16:38;99796.43;;;9.75;48.64
51053;BME280;37093;37.716;-122.060;2023-02-28T04:19:10;99798.82;;;9.40;48.48
51053;BME280;37093;37.716;-122.060;2023-02-28T04:21:40;99806.89;;;8.67;49.76
51053;BME280;37093;37.716;-122.060;2023-02-28T04:24:11;99805.30;;;9.55;49.65
51053;BME280;37093;37.716;-122.060;2023-02-28T04:26:41;99809.97;;;9.87;48.99
51053;BME280;37093;37.716;-122.060;2023-02-28T04:29:11;99813.73;;;9.69;48.79
51053;BME280;37093;37.716;-122.060;2023-02-28T04:31:40;99820.39;;;9.96;47.70
51053;BME280;37093;37.716;-122.060;2023-02-28T04:34:08;99820.28;;;9.91;48.28
51053;BME280;37093;37.716;-122.060;2023-02-28T04:36:36;99823.57;;;9.96;47.71
51053;BME280;37093;37.716;-122.060;2023-02-28T04:39:06;99826.61;;;10.62;47.22
51053;BME280;37093;37.716;-122.060;2023-02-28T04:41:34;99829.97;;;9.58;46.88
51053;BME280;37093;37.716;-122.060;2023-02-28T04:44:02;99835.83;;;10.08;47.28
51053;BME280;37093;37.716;-122.060;2023-02-28T04:46:31;99839.40;;;10.18;47.46
51053;BME280;37093;37.716;-122.060;2023-02-28T04:49:00;99839.72;;;10.18;46.79
51053;BME280;37093;37.716;-122.060;2023-02-28T04:51:28;99843.38;;;10.28;47.09
51053;BME280;37093;37.716;-122.060;2023-02-28T04:53:57;99843.75;;;10.01;46.51
51053;BME280;37093;37.716;-122.060;2023-02-28T04:56:25;99838.07;;;10.26;47.48
51053;BME280;37093;37.716;-122.060;2023-02-28T04:58:54;99839.19;;;9.49;49.81
51053;BME280;37093;37.716;-122.060;2023-02-28T05:01:24;99837.88;;;9.87;48.84
51053;BME280;37093;37.716;-122.060;2023-02-28T05:03:55;99833.29;;;10.25;48.40
51053;BME280;37093;37.716;-122.060;2023-02-28T05:06:25;99837.86;;;9.96;48.06
51053;BME280;37093;37.716;-122.060;2023-02-28T05:08:54;99849.80;;;9.95;47.98
51053;BME280;37093;37.716;-122.060;2023-02-28T05:11:25;99850.76;;;10.31;47.47
51053;BME280;37093;37.716;-122.060;2023-02-28T05:13:54;99849.73;;;10.07;47.58
51053;BME280;37093;37.716;-122.060;2023-02-28T05:16:22;99866.36;;;9.32;48.91
51053;BME280;37093;37.716;-122.060;2023-02-28T05:18:51;99879.46;;;7.78;54.19
51053;BME280;37093;37.716;-122.060;2023-02-28T05:21:27;99883.93;;;8.22;54.52
51053;BME280;37093;37.716;-122.060;2023-02-28T05:23:57;99882.68;;;8.29;53.80
51053;BME280;37093;37.716;-122.060;2023-02-28T05:26:26;99881.71;;;7.24;54.87
51053;BME280;37093;37.716;-122.060;2023-02-28T05:28:54;99878.22;;;7.88;54.61
51053;BME280;37093;37.716;-122.060;2023-02-28T05:31:23;99877.64;;;8.05;53.24
51053;BME280;37093;37.716;-122.060;2023-02-28T05:33:52;99876.35;;;9.15;52.62
51053;BME280;37093;37.716;-122.060;2023-02-28T05:36:20;99879.50;;;9.25;52.09
51053;BME280;37093;37.716;-122.060;2023-02-28T05:38:49;99879.79;;;9.47;51.10
51053;BME280;37093;37.716;-122.060;2023-02-28T05:41:19;99867.30;;;9.65;50.51
51053;BME280;37093;37.716;-122.060;2023-02-28T05:43:49;99866.67;;;9.92;50.03
51053;BME280;37093;37.716;-122.060;2023-02-28T05:46:17;99862.92;;;10.29;48.41
51053;BME280;37093;37.716;-122.060;2023-02-28T05:48:47;99867.03;;;10.06;48.86
51053;BME280;37093;37.716;-122.060;2023-02-28T05:51:16;99865.21;;;10.28;47.88
51053;BME280;37093;37.716;-122.060;2023-02-28T05:53:45;99867.42;;;10.36;47.86
51053;BME280;37093;37.716;-122.060;2023-02-28T05:56:13;99874.24;;;10.45;47.95
51053;BME280;37093;37.716;-122.060;2023-02-28T05:58:42;99877.87;;;10.57;48.04
51053;BME280;37093;37.716;-122.060;2023-02-28T06:01:33;99878.30;;;10.64;47.58
51053;BME280;37093;37.716;-122.060;2023-02-28T06:04:04;99889.15;;;10.54;47.19
51053;BME280;37093;37.716;-122.060;2023-02-28T06:06:32;99888.77;;;10.53;45.54
51053;BME280;37093;37.716;-122.060;2023-02-28T06:09:01;99891.35;;;10.66;46.42
51053;BME280;37093;37.716;-122.060;2023-02-28T06:11:30;99888.73;;;10.48;46.01
51053;BME280;37093;37.716;-122.060;2023-02-28T06:13:59;99899.06;;;10.63;46.10
51053;BME280;37093;37.716;-122.060;2023-02-28T06:16:28;99896.55;;;10.76;45.80
51053;BME280;37093;37.716;-122.060;2023-02-28T06:18:59;99902.70;;;10.75;45.69
51053;BME280;37093;37.716;-122.060;2023-02-28T06:21:31;99914.64;;;10.34;46.62
51053;BME280;37093;37.716;-122.060;2023-02-28T06:24:00;99932.69;;;10.61;48.17
51053;BME280;37093;37.716;-122.060;2023-02-28T06:26:29;99947.95;;;9.84;49.35
51053;BME280;37093;37.716;-122.060;2023-02-28T06:28:58;99955.43;;;9.72;50.76
51053;BME280;37093;37.716;-122.060;2023-02-28T06:31:26;99950.87;;;9.21;53.05
51053;BME280;37093;37.716;-122.060;2023-02-28T06:33:55;99949.58;;;9.18;52.29
51053;BME280;37093;37.716;-122.060;2023-02-28T06:36:24;99951.08;;;9.31;52.18
51053;BME280;37093;37.716;-122.060;2023-02-28T06:38:52;99950.08;;;9.45;51.34
51053;BME280;37093;37.716;-122.060;2023-02-28T06:41:23;99954.25;;;9.62;51.24
51053;BME280;37093;37.716;-122.060;2023-02-28T06:43:52;99947.91;;;9.66;51.09
51053;BME280;37093;37.716;-122.060;2023-02-28T06:46:20;99944.66;;;10.35;50.69
51053;BME280;37093;37.716;-122.060;2023-02-28T06:48:49;99943.60;;;10.09;50.41
51053;BME280;37093;37.716;-122.060;2023-02-28T06:51:19;99943.62;;;10.28;49.66
51053;BME280;37093;37.716;-122.060;2023-02-28T06:53:47;99937.60;;;10.31;49.21
51053;BME280;37093;37.716;-122.060;2023-02-28T06:56:17;99935.57;;;10.02;48.75
51053;BME280;37093;37.716;-122.060;2023-02-28T06:58:47;99935.23;;;10.41;49.03
51053;BME280;37093;37.716;-122.060;2023-02-28T07:01:16;99938.95;;;10.50;48.31
51053;BME280;37093;37.716;-122.060;2023-02-28T07:03:46;99940.91;;;10.50;48.63
51053;BME280;37093;37.716;-122.060;2023-02-28T07:06:15;99942.83;;;10.52;48.19
51053;BME280;37093;37.716;-122.060;2023-02-28T07:08:44;99943.18;;;10.48;48.21
51053;BME280;37093;37.716;-122.060;2023-02-28T07:11:12;99940.65;;;10.49;47.89
51053;BME280;37093;37.716;-122.060;2023-02-28T07:13:41;99937.32;;;10.47;47.54
51053;BME280;37093;37.716;-122.060;2023-02-28T07:16:11;99936.77;;;10.42;47.83
51053;BME280;37093;37.716;-122.060;2023-02-28T07:18:39;99931.90;;;10.32;47.37
51053;BME280;37093;37.716;-122.060;2023-02-28T07:21:09;99930.95;;;10.32;47.74
51053;BME280;37093;37.716;-122.060;2023-02-28T07:23:38;99931.89;;;10.37;47.66
51053;BME280;37093;37.716;-122.060;2023-02-28T07:26:10;99932.40;;;10.26;47.46
51053;BME280;37093;37.716;-122.060;2023-02-28T07:28:38;99934.35;;;10.30;47.83
51053;BME280;37093;37.716;-122.060;2023-02-28T07:31:08;99932.83;;;9.92;46.93
51053;BME280;37093;37.716;-122.060;2023-02-28T07:33:37;99935.53;;;10.32;47.57
51053;BME280;37093;37.716;-122.060;2023-02-28T07:36:08;99939.87;;;9.98;47.06
51053;BME280;37093;37.716;-122.060;2023-02-28T07:38:37;99943.00;;;10.37;47.99
51053;BME280;37093;37.716;-122.060;2023-02-28T07:41:05;99944.76;;;9.87;48.04
51053;BME280;37093;37.716;-122.060;2023-02-28T07:43:35;99944.46;;;9.93;48.06
51053;BME280;37093;37.716;-122.060;2023-02-28T07:46:05;99946.99;;;10.44;47.83
51053;BME280;37093;37.716;-122.060;2023-02-28T07:48:34;99943.77;;;10.46;47.34
51053;BME280;37093;37.716;-122.060;2023-02-28T07:51:03;99944.24;;;9.91;47.58
51053;BME280;37093;37.716;-122.060;2023-02-28T07:53:31;99944.01;;;9.70;47.07
51053;BME280;37093;37.716;-122.060;2023-02-28T07:56:01;99941.78;;;10.12;47.37
51053;BME280;37093;37.716;-122.060;2023-02-28T07:58:30;99942.81;;;10.07;47.42
51053;BME280;37093;37.716;-122.060;2023-02-28T08:01:15;99942.74;;;8.65;47.98
51053;BME280;37093;37.716;-122.060;2023-02-28T08:03:44;99940.25;;;8.71;46.27
51053;BME280;37093;37.716;-122.060;2023-02-28T08:06:18;99937.06;;;10.19;43.87
51053;BME280;37093;37.716;-122.060;2023-02-28T08:08:46;99940.70;;;10.90;43.80
51053;BME280;37093;37.716;-122.060;2023-02-28T08:11:15;99934.48;;;10.46;44.83
51053;BME280;37093;37.716;-122.060;2023-02-28T08:13:45;99939.62;;;10.40;45.45
51053;BME280;37093;37.716;-122.060;2023-02-28T08:16:14;99936.49;;;10.12;46.13
51053;BME280;37093;37.716;-122.060;2023-02-28T08:18:43;99932.97;;;10.23;46.48
51053;BME280;37093;37.716;-122.060;2023-02-28T08:21:12;99935.04;;;10.33;46.27
51053;BME280;37093;37.716;-122.060;2023-02-28T08:23:40;99937.02;;;9.60;46.51
51053;BME280;37093;37.716;-122.060;2023-02-28T08:26:09;99935.00;;;10.00;47.25
51053;BME280;37093;37.716;-122.060;2023-02-28T08:28:37;99937.47;;;9.52;47.33
51053;BME280;37093;37.716;-122.060;2023-02-28T08:31:10;99938.86;;;9.67;47.05
51053;BME280;37093;37.716;-122.060;2023-02-28T08:33:39;99938.62;;;9.71;46.73
51053;BME280;37093;37.716;-122.060;2023-02-28T08:36:08;99940.71;;;8.96;46.84
51053;BME280;37093;37.716;-122.060;2023-02-28T08:38:37;99944.60;;;9.47;47.19
51053;BME280;37093;37.716;-122.060;2023-02-28T08:41:07;99945.67;;;9.45;47.35
51053;BME280;37093;37.716;-122.060;2023-02-28T08:43:39;99943.96;;;9.48;47.30
51053;BME280;37093;37.716;-122.060;2023-02-28T08:46:08;99945.69;;;9.57;47.76
51053;BME280;37093;37.716;-122.060;2023-02-28T08:48:39;99947.41;;;9.56;47.91
51053;BME280;37093;37.716;-122.060;2023-02-28T08:51:09;99944.80;;;9.03;47.27
51053;BME280;37093;37.716;-122.060;2023-02-28T08:53:39;99942.82;;;9.67;47.19
51053;BME280;37093;37.716;-122.060;2023-02-28T08:56:09;99947.67;;;9.50;46.70
51053;BME280;37093;37.716;-122.060;2023-02-28T08:58:38;99944.25;;;9.46;46.66
51053;BME280;37093;37.716;-122.060;2023-02-28T09:01:10;99944.71;;;9.27;46.57
51053;BME280;37093;37.716;-122.060;2023-02-28T09:03:39;99943.77;;;9.26;47.12
51053;BME280;37093;37.716;-122.060;2023-02-28T09:06:08;99943.19;;;9.26;47.12
51053;BME280;37093;37.716;-122.060;2023-02-28T09:08:37;99946.07;;;9.26;46.58
51053;BME280;37093;37.716;-122.060;2023-02-28T09:11:06;99945.38;;;9.22;46.87
51053;BME280;37093;37.716;-122.060;2023-02-28T09:13:34;99942.05;;;9.32;46.86
51053;BME280;37093;37.716;-122.060;2023-02-28T09:16:05;99943.96;;;9.51;46.37
51053;BME280;37093;37.716;-122.060;2023-02-28T09:18:35;99939.80;;;9.02;45.94
51053;BME280;37093;37.716;-122.060;2023-02-28T09:21:05;99936.93;;;9.09;47.21
51053;BME280;37093;37.716;-122.060;2023-02-28T09:23:33;99938.27;;;9.02;47.27
51053;BME280;37093;37.716;-122.060;2023-02-28T09:26:02;99941.51;;;8.87;47.31
51053;BME280;37093;37.716;-122.060;2023-02-28T09:28:32;99943.19;;;8.90;47.33
51053;BME280;37093;37.716;-122.060;2023-02-28T09:31:00;99941.52;;;8.87;47.05
51053;BME280;37093;37.716;-122.060;2023-02-28T09:33:28;99934.02;;;9.01;46.57
51053;BME280;37093;37.716;-122.060;2023-02-28T09:36:00;99936.88;;;9.13;47.00
51053;BME280;37093;37.716;-122.060;2023-02-28T09:38:28;99934.27;;;9.27;46.94
51053;BME280;37093;37.716;-122.060;2023-02-28T09:41:00;99932.74;;;9.02;47.06
51053;BME280;37093;37.716;-122.060;2023-02-28T09:43:31;99928.90;;;9.02;47.24
51053;BME280;37093;37.716;-122.060;2023-02-28T09:46:07;99925.59;;;9.07;47.07
51053;BME280;37093;37.716;-122.060;2023-02-28T09:48:39;99923.39;;;9.01;46.47
51053;BME280;37093;37.716;-122.060;2023-02-28T09:51:21;99920.51;;;8.92;46.56
51053;BME280;37093;37.716;-122.060;2023-02-28T09:53:54;99917.24;;;8.81;47.01
51053;BME280;37093;37.716;-122.060;2023-02-28T09:56:26;99917.62;;;8.81;46.65
51053;BME280;37093;37.716;-122.060;2023-02-28T09:59:00;99913.51;;;8.57;47.23
51053;BME280;37093;37.716;-122.060;2023-02-28T10:01:35;99909.64;;;8.89;47.18
51053;BME280;37093;37.716;-122.060;2023-02-28T10:04:11;99909.75;;;8.90;47.03
51053;BME280;37093;37.716;-122.060;2023-02-28T10:06:46;99906.26;;;8.89;47.49
51053;BME280;37093;37.716;-122.060;2023-02-28T10:09:19;99905.11;;;8.43;48.26
51053;BME280;37093;37.716;-122.060;2023-02-28T10:11:51;99908.09;;;8.79;48.50
51053;BME280;37093;37.716;-122.060;2023-02-28T10:14:22;99902.01;;;8.51;48.95
51053;BME280;37093;37.716;-122.060;2023-02-28T10:16:55;99901.43;;;8.59;48.88
51053;BME280;37093;37.716;-122.060;2023-02-28T10:19:30;99899.85;;;8.82;48.75
51053;BME280;37093;37.716;-122.060;2023-02-28T10:22:04;99895.91;;;8.54;48.85
51053;BME280;37093;37.716;-122.060;2023-02-28T10:24:37;99889.50;;;8.84;48.69
51053;BME280;37093;37.716;-122.060;2023-02-28T10:27:14;99885.96;;;8.14;48.89
51053;BME280;37093;37.716;-122.060;2023-02-28T10:29:45;99890.01;;;8.26;51.99
51053;BME280;37093;37.716;-122.060;2023-02-28T10:32:17;99888.82;;;7.58;52.24
51053;BME280;37093;37.716;-122.060;2023-02-28T10:34:46;99891.62;;;7.76;50.89
51053;BME280;37093;37.716;-122.060;2023-02-28T10:37:20;99882.55;;;8.13;51.43
51053;BME280;37093;37.716;-122.060;2023-02-28T10:39:49;99880.24;;;8.50;50.53
51053;BME280;37093;37.716;-122.060;2023-02-28T10:42:23;99876.71;;;8.30;50.86
51053;BME280;37093;37.716;-122.060;2023-02-28T10:45:09;99874.76;;;8.36;51.36
51053;BME280;37093;37.716;-122.060;2023-02-28T10:47:49;99871.62;;;8.51;50.18
51053;BME280;37093;37.716;-122.060;2023-02-28T10:50:39;99870.33;;;8.86;50.44
51053;BME280;37093;37.716;-122.060;2023-02-28T10:53:24;99871.14;;;8.77;49.98
51053;BME280;37093;37.716;-122.060;2023-02-28T10:55:58;99867.86;;;8.93;49.35
51053;BME280;37093;37.716;-122.060;2023-02-28T10:58:29;99867.56;;;8.43;50.19
51053;BME280;37093;37.716;-122.060;2023-02-28T11:00:59;99864.47;;;8.47;50.40
51053;BME280;37093;37.716;-122.060;2023-02-28T11:03:33;99864.70;;;8.36;50.30
51053;BME280;37093;37.716;-122.060;2023-02-28T11:06:08;99862.08;;;8.63;50.61
51053;BME280;37093;37.716;-122.060;2023-02-28T11:08:46;99853.23;;;8.64;50.89
51053;BME280;37093;37.716;-122.060;2023-02-28T11:11:15;99851.45;;;8.72;50.72
51053;BME280;37093;37.716;-122.060;2023-02-28T11:13:45;99849.37;;;8.54;50.41
51053;BME280;37093;37.716;-122.060;2023-02-28T11:16:15;99848.55;;;8.61;50.64
51053;BME280;37093;37.716;-122.060;2023-02-28T11:18:48;99845.32;;;9.06;49.94
51053;BME280;37093;37.716;-122.060;2023-02-28T11:21:23;99847.46;;;8.63;51.25
51053;BME280;37093;37.716;-122.060;2023-02-28T11:23:59;99845.20;;;8.48;49.88
51053;BME280;37093;37.716;-122.060;2023-02-28T11:26:40;99846.75;;;8.11;50.90
51053;BME280;37093;37.716;-122.060;2023-02-28T11:29:18;99844.83;;;8.31;50.67
51053;BME280;37093;37.716;-122.060;2023-02-28T11:32:21;99847.79;;;8.24;51.62
51053;BME280;37093;37.716;-122.060;2023-02-28T11:35:10;99845.70;;;7.64;52.34
51053;BME280;37093;37.716;-122.060;2023-02-28T11:37:42;99846.60;;;8.46;51.02
51053;BME280;37093;37.716;-122.060;2023-02-28T11:40:14;99846.12;;;8.64;50.41
51053;BME280;37093;37.716;-122.060;2023-02-28T11:42:53;99844.23;;;9.15;49.40
51053;BME280;37093;37.716;-122.060;2023-02-28T11:45:43;99843.30;;;9.03;49.35
51053;BME280;37093;37.716;-122.060;2023-02-28T11:48:21;99837.43;;;8.97;49.66
51053;BME280;37093;37.716;-122.060;2023-02-28T11:50:59;99836.70;;;8.43;49.72
51053;BME280;37093;37.716;-122.060;2023-02-28T11:53:46;99825.05;;;8.25;51.54
51053;BME280;37093;37.716;-122.060;2023-02-28T11:56:21;99826.52;;;8.05;52.13
51053;BME280;37093;37.716;-122.060;2023-02-28T11:59:03;99826.45;;;8.00;51.39
51053;BME280;37093;37.716;-122.060;2023-02-28T12:01:47;99822.96;;;7.26;52.94
51053;BME280;37093;37.716;-122.060;2023-02-28T12:04:28;99822.20;;;7.96;51.68
51053;BME280;37093;37.716;-122.060;2023-02-28T12:07:06;99820.45;;;7.75;53.88
51053;BME280;37093;37.716;-122.060;2023-02-28T12:09:49;99822.28;;;8.55;51.16
51053;BME280;37093;37.716;-122.060;2023-02-28T12:12:29;99822.06;;;8.70;51.48
51053;BME280;37093;37.716;-122.060;2023-02-28T12:15:17;99819.99;;;8.65;50.63
51053;BME280;37093;37.716;-122.060;2023-02-28T12:17:59;99817.54;;;8.60;50.51
51053;BME280;37093;37.716;-122.060;2023-02-28T12:20:36;99815.11;;;8.38;50.55
51053;BME280;37093;37.716;-122.060;2023-02-28T12:23:36;99810.51;;;8.78;50.89
51053;BME280;37093;37.716;-122.060;2023-02-28T12:26:16;99802.52;;;7.80;53.78
51053;BME280;37093;37.716;-122.060;2023-02-28T12:28:51;99798.11;;;7.67;55.69
51053;BME280;37093;37.716;-122.060;2023-02-28T12:31:23;99797.41;;;8.17;53.46
51053;BME280;37093;37.716;-122.060;2023-02-28T12:33:55;99799.40;;;8.53;51.69
51053;BME280;37093;37.716;-122.060;2023-02-28T12:36:24;99790.29;;;7.51;55.64
51053;BME280;37093;37.716;-122.060;2023-02-28T12:38:56;99788.52;;;7.47;54.96
51053;BME280;37093;37.716;-122.060;2023-02-28T12:41:34;99774.01;;;7.43;56.02
51053;BME280;37093;37.716;-122.060;2023-02-28T12:44:09;99776.99;;;6.82;57.74
51053;BME280;37093;37.716;-122.060;2023-02-28T12:46:43;99775.42;;;6.91;57.55
51053;BME280;37093;37.716;-122.060;2023-02-28T12:49:17;99775.08;;;7.60;57.26
51053;BME280;37093;37.716;-122.060;2023-02-28T12:51:48;99774.34;;;6.96;58.29
51053;BME280;37093;37.716;-122.060;2023-02-28T12:54:22;99767.81;;;7.11;57.57
51053;BME280;37093;37.716;-122.060;2023-02-28T12:56:58;99767.82;;;7.09;57.86
51053;BME280;37093;37.716;-122.060;2023-02-28T12:59:37;99776.84;;;6.05;61.61
51053;BME280;37093;37.716;-122.060;2023-02-28T13:02:32;99779.88;;;6.59;58.83
51053;BME280;37093;37.716;-122.060;2023-02-28T13:05:21;99768.92;;;6.33;59.42